Terminal Aerodrome Forecast
Issued by NWS

Home | Current Version | Previous Version | Text Only | Print | Product List | Glossary On
Versions: 1 2 3 4 5 6 7 8 9 10 11 12 13 14 15
000
FTUS45 KBOI 190529
TAFTWF
TAF
KTWF 190529Z 1906/2006 24010G20KT P6SM OVC100
     FM191000 20012KT P6SM -RA OVC035
     FM191800 26012G20KT P6SM VCSH OVC080=

USA.gov is the U.S. government's official web portal to all federal, state and local government web resources and services.